ADDS METAR Data INFO
IDs: Format: Raw Decoded Include TAF

Data at: 1229 UTC 20 Jul 2017

METAR for:PADQ (Kodiak Arpt, AK, US)
Text:PADQ 201222Z AUTO 01012KT 3SM -RA BR SCT008 OVC015 12/11 A2966 RMK AO2 P0002 T01170111 TSNO
Temperature: 11.7°C ( 53°F)
Dewpoint: 11.1°C ( 52°F) [RH = 96%]
Pressure (altimeter):29.66 inches Hg (1004.5 mb)
Winds:from the N (10 degrees) at 14 MPH (12 knots; 6.2 m/s)
Visibility: 3 sm ( 5 km)
Ceiling:1500 feet AGL
Clouds: scattered clouds at 800 feet AGL, overcast cloud deck at 1500 feet AGL
Weather:-RA BR (light rain, mist)
QC Flag:automated observation with no human augmentation
Text:PADQ 201215Z AUTO 01011KT 2 1/2SM -RA BR SCT008 OVC015 12/11 A2966 RMK AO2 P0002 T01170111 TSNO
Temperature: 11.7°C ( 53°F)
Dewpoint: 11.1°C ( 52°F) [RH = 96%]
Pressure (altimeter):29.66 inches Hg (1004.5 mb)
Winds:from the N (10 degrees) at 13 MPH (11 knots; 5.7 m/s)
Visibility: 2.50 sm ( 4.02 km)
Ceiling:1500 feet AGL
Clouds: scattered clouds at 800 feet AGL, overcast cloud deck at 1500 feet AGL
Weather:-RA BR (light rain, mist)
QC Flag:automated observation with no human augmentation
Text:PADQ 201212Z AUTO 01012G19KT 2 1/2SM -RA BR BKN008 OVC013 12/11 A2966 RMK AO2 P0002 T01170111 TSNO
Temperature: 11.7°C ( 53°F)
Dewpoint: 11.1°C ( 52°F) [RH = 96%]
Pressure (altimeter):29.66 inches Hg (1004.5 mb)
Winds:from the N (10 degrees) at 14 MPH (12 knots; 6.2 m/s) gusting to 22 MPH (19 knots; 9.8 m/s)
Visibility: 2.50 sm ( 4.02 km)
Ceiling:800 feet AGL
Clouds: broken clouds at 800 feet AGL, overcast cloud deck at 1300 feet AGL
Weather:-RA BR (light rain, mist)
QC Flag:automated observation with no human augmentation
Text:PADQ 201156Z AUTO 01008G17KT 2 1/2SM -RA BR SCT008 OVC013 12/11 A2967 RMK AO2 P0000 T01170111 TSNO
Temperature: 11.7°C ( 53°F)
Dewpoint: 11.1°C ( 52°F) [RH = 96%]
Pressure (altimeter):29.67 inches Hg (1004.8 mb)
Winds:from the N (10 degrees) at 9 MPH (8 knots; 4.1 m/s) gusting to 20 MPH (17 knots; 8.7 m/s)
Visibility: 2.50 sm ( 4.02 km)
Ceiling:1300 feet AGL
Clouds: scattered clouds at 800 feet AGL, overcast cloud deck at 1300 feet AGL
Weather:-RA BR (light rain, mist)
QC Flag:automated observation with no human augmentation
Text:PADQ 201153Z AUTO 02010KT 3SM -RA BR BKN008 OVC013 12/11 A2967 RMK AO2 SLP047 P0004 60018 70039 T01170111 10117 20117 58001 TSNO
Temperature: 11.7°C ( 53°F)
Dewpoint: 11.1°C ( 52°F) [RH = 96%]
Pressure (altimeter):29.67 inches Hg (1004.8 mb) [Sea level pressure: 1004.7 mb]
Winds:from the NNE (20 degrees) at 12 MPH (10 knots; 5.1 m/s)
Visibility: 3 sm ( 5 km)
Ceiling:800 feet AGL
Clouds: broken clouds at 800 feet AGL, overcast cloud deck at 1300 feet AGL
Weather:-RA BR (light rain, mist)
QC Flag:automated observation with no human augmentation
Text:PADQ 201117Z AUTO 04014KT 3SM -RA BR BKN006 OVC010 12/12 A2968 RMK AO2 P0002 T01170117 TSNO
Temperature: 11.7°C ( 53°F)
Dewpoint: 11.7°C ( 53°F) [RH = 100%]
Pressure (altimeter):29.68 inches Hg (1005.2 mb)
Winds:from the NE (40 degrees) at 16 MPH (14 knots; 7.2 m/s)
Visibility: 3 sm ( 5 km)
Ceiling:600 feet AGL
Clouds: broken clouds at 600 feet AGL, overcast cloud deck at 1000 feet AGL
Weather:-RA BR (light rain, mist)
QC Flag:automated observation with no human augmentation
Text:PADQ 201110Z AUTO 04016KT 2 1/2SM -RA BR BKN006 OVC010 12/12 A2968 RMK AO2 P0001 T01170117 TSNO
Temperature: 11.7°C ( 53°F)
Dewpoint: 11.7°C ( 53°F) [RH = 100%]
Pressure (altimeter):29.68 inches Hg (1005.2 mb)
Winds:from the NE (40 degrees) at 18 MPH (16 knots; 8.2 m/s)
Visibility: 2.50 sm ( 4.02 km)
Ceiling:600 feet AGL
Clouds: broken clouds at 600 feet AGL, overcast cloud deck at 1000 feet AGL
Weather:-RA BR (light rain, mist)
QC Flag:automated observation with no human augmentation
Text:PADQ 201053Z AUTO 04018KT 3SM -RA BR BKN006 OVC010 12/11 A2968 RMK AO2 SLP050 P0004 T01170111 TSNO
Temperature: 11.7°C ( 53°F)
Dewpoint: 11.1°C ( 52°F) [RH = 96%]
Pressure (altimeter):29.68 inches Hg (1005.2 mb) [Sea level pressure: 1005.0 mb]
Winds:from the NE (40 degrees) at 21 MPH (18 knots; 9.3 m/s)
Visibility: 3 sm ( 5 km)
Ceiling:600 feet AGL
Clouds: broken clouds at 600 feet AGL, overcast cloud deck at 1000 feet AGL
Weather:-RA BR (light rain, mist)
QC Flag:automated observation with no human augmentation
Text:PADQ 200953Z AUTO 05014KT 2SM -RA BR OVC005 12/11 A2968 RMK AO2 SLP050 P0004 T01170111 TSNO
Temperature: 11.7°C ( 53°F)
Dewpoint: 11.1°C ( 52°F) [RH = 96%]
Pressure (altimeter):29.68 inches Hg (1005.2 mb) [Sea level pressure: 1005.0 mb]
Winds:from the NE (50 degrees) at 16 MPH (14 knots; 7.2 m/s)
Visibility: 2.00 sm ( 3.22 km)
Ceiling:500 feet AGL
Clouds: overcast cloud deck at 500 feet AGL
Weather:-RA BR (light rain, mist)
QC Flag:automated observation with no human augmentation
Text:PADQ 200935Z AUTO 04015KT 2 1/2SM -RA BR OVC005 12/12 A2968 RMK AO2 P0003 T01170117 TSNO
Temperature: 11.7°C ( 53°F)
Dewpoint: 11.7°C ( 53°F) [RH = 100%]
Pressure (altimeter):29.68 inches Hg (1005.2 mb)
Winds:from the NE (40 degrees) at 17 MPH (15 knots; 7.7 m/s)
Visibility: 2.50 sm ( 4.02 km)
Ceiling:500 feet AGL
Clouds: overcast cloud deck at 500 feet AGL
Weather:-RA BR (light rain, mist)
QC Flag:automated observation with no human augmentation
Text:PADQ 200853Z AUTO 04012KT 2SM -RA BR OVC004 12/12 A2967 RMK AO2 SLP048 P0003 60006 T01170117 401390111 53007 TSNO
Temperature: 11.7°C ( 53°F)
Dewpoint: 11.7°C ( 53°F) [RH = 100%]
Pressure (altimeter):29.67 inches Hg (1004.8 mb) [Sea level pressure: 1004.8 mb]
Winds:from the NE (40 degrees) at 14 MPH (12 knots; 6.2 m/s)
Visibility: 2.00 sm ( 3.22 km)
Ceiling:400 feet AGL
Clouds: overcast cloud deck at 400 feet AGL
Weather:-RA BR (light rain, mist)
QC Flag:automated observation with no human augmentation
Text:PADQ 200753Z AUTO 05012KT 2 1/2SM -RA BR OVC003 12/12 A2966 RMK AO2 RAB23 SLP045 P0002 T01170117 TSNO
Temperature: 11.7°C ( 53°F)
Dewpoint: 11.7°C ( 53°F) [RH = 100%]
Pressure (altimeter):29.66 inches Hg (1004.5 mb) [Sea level pressure: 1004.5 mb]
Winds:from the NE (50 degrees) at 14 MPH (12 knots; 6.2 m/s)
Visibility: 2.50 sm ( 4.02 km)
Ceiling:300 feet AGL
Clouds: overcast cloud deck at 300 feet AGL
Weather:-RA BR (light rain, mist)
QC Flag:automated observation with no human augmentation
Text:PADQ 200734Z AUTO 06010KT 2 1/2SM -RA BR OVC003 12/12 A2966 RMK AO2 RAB23 P0001 T01170117 TSNO
Temperature: 11.7°C ( 53°F)
Dewpoint: 11.7°C ( 53°F) [RH = 100%]
Pressure (altimeter):29.66 inches Hg (1004.5 mb)
Winds:from the ENE (60 degrees) at 12 MPH (10 knots; 5.1 m/s)
Visibility: 2.50 sm ( 4.02 km)
Ceiling:300 feet AGL
Clouds: overcast cloud deck at 300 feet AGL
Weather:-RA BR (light rain, mist)
QC Flag:automated observation with no human augmentation
Text:PADQ 200658Z AUTO 04012KT 1 3/4SM BR OVC003 12/12 A2965 RMK AO2 T01170117 TSNO
Temperature: 11.7°C ( 53°F)
Dewpoint: 11.7°C ( 53°F) [RH = 100%]
Pressure (altimeter):29.65 inches Hg (1004.1 mb)
Winds:from the NE (40 degrees) at 14 MPH (12 knots; 6.2 m/s)
Visibility: 1.75 sm ( 2.82 km)
Ceiling:300 feet AGL
Clouds: overcast cloud deck at 300 feet AGL
Weather:BR (mist)
QC Flag:automated observation with no human augmentation
Text:PADQ 200653Z AUTO 03012KT 3SM BR OVC003 12/12 A2965 RMK AO2 RAB35E53 SLP041 P0001 T01170117 TSNO
Temperature: 11.7°C ( 53°F)
Dewpoint: 11.7°C ( 53°F) [RH = 100%]
Pressure (altimeter):29.65 inches Hg (1004.1 mb) [Sea level pressure: 1004.1 mb]
Winds:from the NNE (30 degrees) at 14 MPH (12 knots; 6.2 m/s)
Visibility: 3 sm ( 5 km)
Ceiling:300 feet AGL
Clouds: overcast cloud deck at 300 feet AGL
Weather:BR (mist)
QC Flag:automated observation with no human augmentation
Text:PADQ 200644Z AUTO 04013KT 2SM -RA BR OVC003 12/12 A2965 RMK AO2 RAB35 P0001 T01170117 TSNO
Temperature: 11.7°C ( 53°F)
Dewpoint: 11.7°C ( 53°F) [RH = 100%]
Pressure (altimeter):29.65 inches Hg (1004.1 mb)
Winds:from the NE (40 degrees) at 15 MPH (13 knots; 6.7 m/s)
Visibility: 2.00 sm ( 3.22 km)
Ceiling:300 feet AGL
Clouds: overcast cloud deck at 300 feet AGL
Weather:-RA BR (light rain, mist)
QC Flag:automated observation with no human augmentation

TAF for:PADQ (Kodiak Arpt, AK, US) issued at 1140 UTC 20 Jul 2017
Text:PADQ 201140Z 2012/2112 04015KT 2SM -RA BR OVC006
Forecast period:1200 to 1500 UTC 20 July 2017
Forecast type:FROM: standard forecast or significant change
Winds:from the NE (40 degrees) at 17 MPH (15 knots; 7.7 m/s)
Visibility: 2.00 sm ( 3.22 km)
Ceiling:600 feet AGL
Clouds: overcast cloud deck at 600 feet AGL
Weather:-RA BR (light rain, mist)
Text:TEMPO 2012/2015 1 1/2SM -RA BR OVC004
Forecast period:1200 to 1500 UTC 20 July 2017
Forecast type:TEMPORARY: The following changes expected for less than half the time period
Visibility: 1.50 sm ( 2.41 km)
Ceiling:400 feet AGL
Clouds: overcast cloud deck at 400 feet AGL
Weather:-RA BR (light rain, mist)
Text:FM201500 02015KT 2SM -RA BR OVC005
Forecast period:1500 to 2200 UTC 20 July 2017
Forecast type:FROM: standard forecast or significant change
Winds:from the NNE (20 degrees) at 17 MPH (15 knots; 7.7 m/s)
Visibility: 2.00 sm ( 3.22 km)
Ceiling:500 feet AGL
Clouds: overcast cloud deck at 500 feet AGL
Weather:-RA BR (light rain, mist)
Text:FM202200 01020KT 3SM -RA BR OVC008
Forecast period:2200 UTC 20 July 2017 to 0600 UTC 21 July 2017
Forecast type:FROM: standard forecast or significant change
Winds:from the N (10 degrees) at 23 MPH (20 knots; 10.3 m/s)
Visibility: 3 sm ( 5 km)
Ceiling:800 feet AGL
Clouds: overcast cloud deck at 800 feet AGL
Weather:-RA BR (light rain, mist)
Text:FM210600 02018KT 5SM -RA BR OVC010
Forecast period:0600 to 1200 UTC 21 July 2017
Forecast type:FROM: standard forecast or significant change
Winds:from the NNE (20 degrees) at 21 MPH (18 knots; 9.3 m/s)
Visibility: 5 sm ( 8 km)
Ceiling:1000 feet AGL
Clouds: overcast cloud deck at 1000 feet AGL
Weather:-RA BR (light rain, mist)